Englewood, Colorado
Current Conditions -  °F | °C
As of 9:53 AM on Friday 28 Nov 2014 (Local Time) from KAPA Reporting Station
Broken Clouds Broken Clouds  
Wind Chill: 55°   Ceiling: 25000
Heat Index: 55°   Visibility: 10mi
Dew Point: 15°   Wind: 7mph
Humidity: 21%   Direction: 170°S
Pressure: 29.96"   Gusts: NA
Location:  39.65°N, 104.99°W
Report Text: KAPA 281653Z 17006KT 10SM FEW100 BKN250 13/M09 A2996 RMK AO2 SLP124 T01281094
Loading
Personal Weather Stations






























Interactive Weather Map New forecast layout! Learn more

10-Day Weather Forecast

Advertisements
Track Severe Weather on mobile